Terminal Aerodrome Forecast
Issued by NWS Cleveland, OH

Home | Current Version | Previous Version | Graphics & Text | Print | Product List | Glossary On
Versions: 1 2 3 4 5 6 7 8 9 10 11 12 13 14 15 16 17 18 19 20
000
FTUS41 KCLE 151705 AAB
TAFERI
TAF AMD
KERI 151705Z 1517/1612 21020G30KT P6SM SCT025 BKN200
     FM151900 22025G35KT 6SM -SHRA VCTS SCT015 OVC025CB
      TEMPO 1519/1521 27028G40KT 5SM -TSRA BKN035CB
     FM152100 28025G40KT P6SM BKN030
     FM160100 30015G25KT P6SM OVC025
     FM160800 30012KT P6SM OVC025=

USA.gov is the U.S. government's official web portal to all federal, state and local government web resources and services.